createdAt,value
2019-03-29T00:01:10.131Z,47.80
2019-03-29T00:03:38.579Z,47.20
2019-03-29T00:06:06.998Z,46.80
2019-03-29T00:08:36.107Z,46.80
2019-03-29T00:11:04.812Z,47.60
2019-03-29T00:13:33.302Z,47.00
2019-03-29T00:16:01.834Z,47.50
2019-03-29T00:18:30.250Z,47.50
2019-03-29T00:20:58.695Z,47.30
2019-03-29T00:23:27.191Z,46.30
2019-03-29T00:25:55.624Z,45.80
2019-03-29T00:28:24.044Z,45.60
2019-03-29T00:30:52.474Z,44.90
2019-03-29T00:33:20.987Z,45.00
2019-03-29T00:35:49.684Z,45.80
2019-03-29T00:38:18.119Z,45.30
2019-03-29T00:40:46.566Z,46.60
2019-03-29T00:43:14.994Z,46.40
2019-03-29T00:45:43.458Z,47.30
2019-03-29T00:48:11.876Z,47.10
2019-03-29T00:50:40.323Z,47.50
2019-03-29T00:53:09.130Z,48.00
2019-03-29T00:55:37.840Z,48.30
2019-03-29T00:58:06.279Z,48.10
2019-03-29T01:00:34.842Z,48.30
2019-03-29T01:03:03.771Z,48.40
2019-03-29T01:05:32.239Z,48.60
2019-03-29T01:08:07.720Z,48.70
2019-03-29T01:10:30.891Z,48.80
2019-03-29T01:12:59.351Z,49.80
2019-03-29T01:15:27.841Z,49.90
2019-03-29T01:17:56.274Z,50.10
2019-03-29T01:20:24.693Z,50.30
2019-03-29T01:22:53.142Z,50.40
2019-03-29T01:25:21.569Z,55.00
2019-03-29T01:27:50.010Z,55.80
2019-03-29T01:30:18.486Z,54.90
2019-03-29T01:32:47.012Z,54.40
2019-03-29T01:35:15.418Z,69.00
2019-03-29T01:37:43.860Z,69.20
2019-03-29T01:40:13.909Z,69.90
2019-03-29T01:42:42.350Z,71.00
2019-03-29T01:45:11.007Z,71.20
2019-03-29T01:47:39.447Z,70.90
2019-03-29T01:50:08.903Z,71.60
2019-03-29T01:52:37.427Z,71.90
2019-03-29T01:55:06.999Z,71.70
2019-03-29T01:57:35.495Z,71.80
2019-03-29T02:00:04.976Z,71.80
2019-03-29T02:02:33.395Z,72.90
2019-03-29T02:05:01.866Z,73.30
2019-03-29T02:07:30.321Z,73.70
2019-03-29T02:09:58.790Z,73.30
2019-03-29T02:12:27.223Z,73.20
2019-03-29T02:14:55.666Z,73.10
2019-03-29T02:17:24.169Z,73.00
2019-03-29T02:19:52.635Z,72.50
2019-03-29T02:22:21.075Z,72.20
2019-03-29T02:24:50.047Z,72.00
2019-03-29T02:27:18.744Z,72.30
2019-03-29T02:29:47.191Z,73.00
2019-03-29T02:32:15.619Z,73.30
2019-03-29T02:34:44.259Z,73.00
2019-03-29T02:37:12.876Z,73.50
2019-03-29T02:39:41.331Z,73.50
2019-03-29T02:42:09.763Z,73.80
2019-03-29T02:44:38.223Z,74.10
2019-03-29T02:47:06.639Z,74.00
2019-03-29T02:49:35.086Z,74.50
2019-03-29T02:52:03.739Z,74.40
2019-03-29T02:54:32.175Z,74.20
2019-03-29T02:57:00.985Z,74.50
2019-03-29T02:59:29.486Z,75.30
2019-03-29T03:01:58.000Z,75.60
2019-03-29T03:04:26.587Z,75.90
2019-03-29T03:06:55.033Z,76.40
2019-03-29T03:09:23.453Z,76.30
2019-03-29T03:11:51.914Z,76.50
2019-03-29T03:14:20.352Z,76.20
2019-03-29T03:16:48.928Z,75.70
2019-03-29T03:19:17.370Z,75.90
2019-03-29T03:21:45.812Z,75.40
2019-03-29T03:24:14.308Z,75.50
2019-03-29T03:26:42.812Z,75.60
2019-03-29T03:29:11.247Z,75.20
2019-03-29T03:31:39.690Z,75.80
2019-03-29T03:34:08.185Z,76.10
2019-03-29T03:36:36.632Z,77.00
2019-03-29T03:39:07.479Z,77.20
2019-03-29T03:41:35.926Z,77.20
2019-03-29T03:44:04.489Z,76.70
2019-03-29T03:46:32.930Z,77.20
2019-03-29T03:49:01.394Z,77.20
2019-03-29T03:51:30.224Z,77.00
2019-03-29T03:53:58.833Z,77.10
2019-03-29T03:56:29.128Z,77.40
2019-03-29T03:58:58.580Z,76.70
2019-03-29T04:01:27.018Z,76.60
2019-03-29T04:03:56.215Z,77.00
2019-03-29T04:06:24.670Z,78.00
2019-03-29T04:08:53.105Z,78.00
2019-03-29T04:11:21.528Z,77.80
2019-03-29T04:13:49.975Z,78.20
2019-03-29T04:16:18.387Z,78.50
2019-03-29T04:18:46.897Z,78.40
2019-03-29T04:21:15.303Z,78.70
2019-03-29T04:23:43.751Z,78.80
2019-03-29T04:26:12.167Z,78.30
2019-03-29T04:28:40.623Z,77.90
2019-03-29T04:31:09.043Z,77.70
2019-03-29T04:33:37.484Z,79.00
2019-03-29T04:36:06.069Z,80.50
2019-03-29T04:38:34.729Z,81.30
2019-03-29T04:41:03.599Z,80.80
2019-03-29T04:43:32.063Z,80.70
2019-03-29T04:46:00.557Z,81.40
2019-03-29T04:48:29.006Z,81.40
2019-03-29T04:50:57.443Z,81.10
2019-03-29T04:53:25.893Z,81.20
2019-03-29T04:55:54.310Z,81.40
2019-03-29T04:58:22.751Z,82.00
2019-03-29T05:00:51.190Z,82.30
2019-03-29T05:03:19.627Z,82.90
2019-03-29T05:05:48.147Z,83.90
2019-03-29T05:08:16.640Z,84.00
2019-03-29T05:10:45.080Z,85.00
2019-03-29T05:13:13.573Z,85.50
2019-03-29T05:15:42.018Z,86.20
2019-03-29T05:18:10.445Z,85.70
2019-03-29T05:20:38.983Z,85.50
2019-03-29T05:23:07.436Z,85.10
2019-03-29T05:25:35.884Z,84.70
2019-03-29T05:28:04.566Z,84.90
2019-03-29T05:30:33.095Z,84.40
2019-03-29T05:33:01.521Z,83.70
2019-03-29T05:35:30.021Z,83.10
2019-03-29T05:37:58.458Z,82.60
2019-03-29T05:40:34.718Z,81.90
2019-03-29T05:42:57.065Z,81.00
2019-03-29T05:45:25.583Z,80.90
2019-03-29T05:47:54.058Z,80.40
2019-03-29T05:50:22.557Z,80.00
2019-03-29T05:52:51.099Z,79.70
2019-03-29T05:55:32.061Z,79.40
2019-03-29T05:57:50.318Z,78.70
2019-03-29T06:00:19.562Z,78.00
2019-03-29T06:02:48.008Z,77.30
2019-03-29T06:05:16.450Z,77.00
2019-03-29T06:07:44.891Z,76.80
2019-03-29T06:10:13.556Z,76.40
2019-03-29T06:12:41.991Z,76.00
2019-03-29T06:15:10.590Z,75.70
2019-03-29T06:17:48.523Z,75.40
2019-03-29T06:20:09.694Z,74.90
2019-03-29T06:22:38.142Z,74.20
2019-03-29T06:25:07.926Z,74.40
2019-03-29T06:27:37.318Z,74.40
2019-03-29T06:30:08.011Z,63.90
2019-03-29T06:32:36.457Z,63.40
2019-03-29T06:35:07.424Z,62.70
2019-03-29T06:37:37.570Z,61.30
2019-03-29T06:40:09.327Z,61.20
2019-03-29T06:42:37.752Z,61.00
2019-03-29T06:45:07.135Z,60.60
2019-03-29T06:47:35.555Z,59.30
2019-03-29T06:50:06.161Z,57.30
2019-03-29T06:52:34.569Z,57.10
2019-03-29T06:55:03.014Z,55.40
2019-03-29T06:57:31.438Z,56.30
2019-03-29T06:59:59.886Z,56.70
2019-03-29T07:02:28.314Z,53.70
2019-03-29T07:04:56.770Z,49.50
2019-03-29T07:07:25.194Z,49.30
2019-03-29T07:09:53.651Z,46.70
2019-03-29T07:12:22.089Z,45.60
2019-03-29T07:14:50.530Z,42.50
2019-03-29T07:17:18.988Z,40.70
2019-03-29T07:19:47.448Z,40.10
2019-03-29T07:22:15.935Z,37.40
2019-03-29T07:24:44.406Z,37.90
2019-03-29T07:27:12.911Z,35.40
2019-03-29T07:29:41.434Z,34.20
2019-03-29T07:32:09.943Z,33.80
2019-03-29T07:34:38.369Z,32.50
2019-03-29T07:37:06.808Z,32.10
2019-03-29T07:39:35.230Z,32.30
2019-03-29T07:42:03.760Z,31.40
2019-03-29T07:44:32.212Z,28.90
2019-03-29T07:47:00.658Z,29.40
2019-03-29T07:49:29.153Z,29.90
2019-03-29T07:51:57.623Z,29.20
2019-03-29T07:54:26.055Z,28.90
2019-03-29T07:56:54.643Z,28.40
2019-03-29T07:59:23.358Z,28.50
2019-03-29T08:01:52.019Z,27.60
2019-03-29T08:04:21.709Z,28.30
2019-03-29T08:06:50.651Z,28.00
2019-03-29T08:09:22.587Z,27.40
2019-03-29T08:11:49.342Z,27.40
2019-03-29T08:14:17.768Z,27.40
2019-03-29T08:16:46.242Z,27.30
2019-03-29T08:19:14.670Z,27.60
2019-03-29T08:21:43.131Z,27.40
2019-03-29T08:24:11.550Z,27.50
2019-03-29T08:26:40.062Z,27.70
2019-03-29T08:29:08.604Z,28.70
2019-03-29T08:31:37.034Z,28.00
2019-03-29T08:34:05.497Z,27.40
2019-03-29T08:36:33.942Z,27.10
2019-03-29T08:39:02.505Z,28.20
2019-03-29T08:41:30.966Z,27.20
2019-03-29T08:43:59.418Z,26.80
2019-03-29T08:46:27.847Z,27.20
2019-03-29T08:48:56.348Z,27.10
2019-03-29T08:51:24.838Z,27.10
2019-03-29T08:53:53.571Z,26.60
2019-03-29T08:56:21.998Z,26.80
2019-03-29T08:58:50.455Z,27.40
2019-03-29T09:01:19.827Z,27.70
2019-03-29T09:04:02.794Z,27.70
2019-03-29T09:06:19.522Z,26.80
2019-03-29T09:08:48.024Z,26.50
2019-03-29T09:11:16.442Z,26.80
2019-03-29T09:13:44.894Z,25.90
2019-03-29T09:16:13.336Z,26.90
2019-03-29T09:18:41.778Z,26.80
2019-03-29T09:21:10.207Z,26.80
2019-03-29T09:23:38.670Z,27.60
2019-03-29T09:26:07.124Z,27.40
2019-03-29T09:28:35.594Z,28.10
2019-03-29T09:31:04.088Z,27.00
2019-03-29T09:33:32.564Z,26.40
2019-03-29T09:36:01.059Z,25.90
2019-03-29T09:38:29.563Z,25.90
2019-03-29T09:40:59.218Z,25.90
2019-03-29T09:43:27.993Z,26.00
2019-03-29T09:45:56.679Z,26.80
2019-03-29T09:48:25.103Z,26.90
2019-03-29T09:50:53.695Z,26.50
2019-03-29T09:53:22.140Z,26.50
2019-03-29T09:55:53.249Z,26.90
2019-03-29T09:58:20.732Z,26.60
2019-03-29T10:00:49.661Z,27.50
2019-03-29T10:03:18.068Z,25.30
2019-03-29T10:05:46.582Z,25.40
2019-03-29T10:08:18.207Z,25.00
2019-03-29T10:10:46.652Z,24.10
2019-03-29T10:13:15.112Z,24.20
2019-03-29T10:15:43.621Z,24.80
2019-03-29T10:18:12.061Z,25.60
2019-03-29T10:20:40.558Z,24.70
2019-03-29T10:23:09.032Z,25.50
2019-03-29T10:25:37.472Z,24.60
2019-03-29T10:28:05.907Z,23.80
2019-03-29T10:30:39.583Z,24.30
2019-03-29T10:33:08.021Z,23.60
2019-03-29T10:35:50.840Z,23.80
2019-03-29T10:38:07.124Z,24.80
2019-03-29T10:40:35.784Z,26.50
2019-03-29T10:43:04.358Z,25.70
2019-03-29T10:45:38.059Z,23.70
2019-03-29T10:48:02.956Z,22.90
2019-03-29T10:50:31.431Z,23.20
2019-03-29T10:52:59.890Z,23.70
2019-03-29T10:55:28.314Z,24.60
2019-03-29T10:57:56.821Z,22.70
2019-03-29T11:00:38.741Z,22.50
2019-03-29T11:03:07.630Z,22.90
2019-03-29T11:05:36.052Z,22.70
2019-03-29T11:08:04.771Z,23.20
2019-03-29T11:10:35.702Z,23.00
2019-03-29T11:13:12.878Z,23.20
2019-03-29T11:15:34.990Z,23.90
2019-03-29T11:18:03.811Z,23.90
2019-03-29T11:20:32.240Z,24.00
2019-03-29T11:23:00.668Z,25.10
2019-03-29T11:25:29.092Z,24.10
2019-03-29T11:27:57.532Z,24.20
2019-03-29T11:30:26.074Z,23.00
2019-03-29T11:32:54.527Z,22.70
2019-03-29T11:35:22.946Z,24.20
2019-03-29T11:37:51.397Z,24.30
2019-03-29T11:40:19.882Z,24.50
2019-03-29T11:42:48.337Z,24.30
2019-03-29T11:45:16.856Z,24.60
2019-03-29T11:47:45.390Z,23.30
2019-03-29T11:50:14.391Z,24.20
2019-03-29T11:52:42.805Z,23.70
2019-03-29T11:55:11.279Z,24.10
2019-03-29T11:57:39.708Z,23.30
2019-03-29T12:00:10.681Z,25.40
2019-03-29T12:02:39.117Z,24.60
2019-03-29T12:05:07.876Z,25.80
2019-03-29T12:07:36.467Z,25.40
2019-03-29T12:10:09.118Z,23.90
2019-03-29T12:12:37.641Z,24.90
2019-03-29T12:15:08.382Z,23.50
2019-03-29T12:17:36.814Z,24.60
2019-03-29T12:20:07.174Z,24.90
2019-03-29T12:22:35.601Z,24.60
2019-03-29T12:25:06.708Z,24.50
2019-03-29T12:27:35.118Z,24.30
2019-03-29T12:30:05.588Z,24.70
2019-03-29T12:32:34.085Z,25.00
2019-03-29T12:35:02.545Z,24.00
2019-03-29T12:37:30.963Z,24.50
2019-03-29T12:39:59.415Z,25.30
2019-03-29T12:42:27.849Z,25.30
2019-03-29T12:44:56.291Z,24.90
2019-03-29T12:47:24.731Z,25.40
2019-03-29T12:49:53.251Z,25.10
2019-03-29T12:52:21.701Z,24.60
2019-03-29T12:54:50.142Z,25.00
2019-03-29T12:57:18.584Z,24.80
2019-03-29T12:59:47.019Z,23.40
2019-03-29T13:02:17.600Z,23.50
2019-03-29T13:04:47.316Z,23.30
2019-03-29T13:07:15.914Z,23.40
2019-03-29T13:09:44.409Z,23.70
2019-03-29T13:12:12.991Z,24.30
2019-03-29T13:14:41.495Z,23.90
2019-03-29T13:17:10.215Z,24.40
2019-03-29T13:19:38.645Z,24.00
2019-03-29T13:22:07.839Z,24.10
2019-03-29T13:24:36.320Z,23.50
2019-03-29T13:27:04.781Z,23.20
2019-03-29T13:29:33.196Z,23.10
2019-03-29T13:32:01.660Z,22.90
2019-03-29T13:34:30.120Z,23.00
2019-03-29T13:36:58.568Z,22.30
2019-03-29T13:39:27.082Z,23.40
2019-03-29T13:41:55.536Z,23.50
2019-03-29T13:44:26.781Z,23.10
2019-03-29T13:46:54.281Z,23.60
2019-03-29T13:49:22.771Z,23.80
2019-03-29T13:51:51.239Z,23.30
2019-03-29T13:54:19.674Z,23.60
2019-03-29T13:56:48.191Z,23.60
2019-03-29T13:59:16.631Z,24.20
2019-03-29T14:01:45.073Z,23.70
2019-03-29T14:04:13.567Z,23.10
2019-03-29T14:06:42.115Z,23.30
2019-03-29T14:09:10.530Z,23.90
2019-03-29T14:11:38.995Z,22.90
2019-03-29T14:14:07.420Z,22.80
2019-03-29T14:16:35.850Z,22.50
2019-03-29T14:19:04.371Z,22.80
2019-03-29T14:21:32.798Z,22.60
2019-03-29T14:24:01.234Z,22.60
2019-03-29T14:26:29.746Z,22.20
2019-03-29T14:28:58.259Z,22.80
2019-03-29T14:31:26.770Z,21.70
2019-03-29T14:33:55.212Z,21.40
2019-03-29T14:36:23.627Z,21.60
2019-03-29T14:38:52.095Z,21.30
2019-03-29T14:41:20.532Z,22.00
2019-03-29T14:43:48.979Z,22.10
2019-03-29T14:46:17.444Z,22.30
2019-03-29T14:48:45.939Z,22.50
2019-03-29T14:51:14.415Z,21.70
2019-03-29T14:53:42.919Z,21.60
2019-03-29T14:56:11.357Z,21.40
2019-03-29T14:58:39.797Z,21.30
2019-03-29T15:01:08.300Z,21.10
2019-03-29T15:03:38.276Z,21.80
2019-03-29T15:06:06.718Z,21.60
2019-03-29T15:08:35.307Z,21.30
2019-03-29T15:11:03.926Z,21.00
2019-03-29T15:13:32.386Z,21.20
2019-03-29T15:16:00.830Z,21.20
2019-03-29T15:18:29.279Z,21.50
2019-03-29T15:20:57.741Z,21.20
2019-03-29T15:23:26.171Z,20.90
2019-03-29T15:25:54.607Z,20.80
2019-03-29T15:28:23.151Z,20.70
2019-03-29T15:30:52.491Z,20.90
2019-03-29T15:33:21.195Z,20.80
2019-03-29T15:35:49.634Z,20.90
2019-03-29T15:38:18.065Z,20.70
2019-03-29T15:40:46.519Z,20.90
2019-03-29T15:43:14.950Z,20.90
2019-03-29T15:45:43.406Z,20.90
2019-03-29T15:48:11.929Z,20.50
2019-03-29T15:50:40.502Z,20.60
2019-03-29T15:53:08.937Z,20.70
2019-03-29T15:55:37.403Z,20.70
2019-03-29T15:58:05.822Z,20.60
2019-03-29T16:00:34.276Z,20.60
2019-03-29T16:03:02.715Z,20.50
2019-03-29T16:05:31.207Z,20.20
2019-03-29T16:07:59.639Z,19.80
2019-03-29T16:10:28.067Z,19.90
2019-03-29T16:12:56.527Z,20.00
2019-03-29T16:15:35.015Z,20.10
2019-03-29T16:17:55.161Z,20.20
2019-03-29T16:20:23.575Z,20.20
2019-03-29T16:22:52.090Z,20.20
2019-03-29T16:25:20.527Z,20.00
2019-03-29T16:27:49.357Z,20.10
2019-03-29T16:30:17.896Z,20.10
2019-03-29T16:32:46.345Z,20.30
2019-03-29T16:35:14.771Z,20.20
2019-03-29T16:37:56.333Z,20.10
2019-03-29T16:40:14.005Z,20.10
2019-03-29T16:42:42.668Z,20.20
2019-03-29T16:45:11.333Z,20.00
2019-03-29T16:47:39.793Z,20.10
2019-03-29T16:50:09.274Z,20.10
2019-03-29T16:52:37.746Z,20.10
2019-03-29T16:55:13.617Z,20.20
2019-03-29T16:57:37.435Z,20.10
2019-03-29T17:00:12.124Z,20.10
2019-03-29T17:02:39.132Z,19.90
2019-03-29T17:05:08.227Z,19.90
2019-03-29T17:07:36.695Z,19.90
2019-03-29T17:10:07.265Z,19.90
2019-03-29T17:12:35.674Z,19.90
2019-03-29T17:15:05.162Z,19.80
2019-03-29T17:17:33.854Z,19.60
2019-03-29T17:20:02.585Z,19.70
2019-03-29T17:22:31.044Z,19.60
2019-03-29T17:24:59.578Z,19.90
2019-03-29T17:27:28.003Z,19.80
2019-03-29T17:29:56.458Z,19.90
2019-03-29T17:32:24.896Z,20.00
2019-03-29T17:34:53.344Z,20.00
2019-03-29T17:37:21.789Z,20.20
2019-03-29T17:39:50.252Z,19.90
2019-03-29T17:42:18.762Z,20.00
2019-03-29T17:44:47.212Z,19.80
2019-03-29T17:47:15.718Z,20.00
2019-03-29T17:49:44.168Z,19.70
2019-03-29T17:52:12.650Z,19.90
2019-03-29T17:54:41.086Z,20.00
2019-03-29T17:57:09.520Z,20.10
2019-03-29T17:59:37.973Z,20.40
2019-03-29T18:02:09.699Z,22.90
2019-03-29T18:04:36.739Z,22.80
2019-03-29T18:07:05.199Z,23.20
2019-03-29T18:09:36.020Z,23.60
2019-03-29T18:12:04.542Z,23.60
2019-03-29T18:14:32.999Z,23.70
2019-03-29T18:17:01.443Z,24.10
2019-03-29T18:19:29.882Z,24.20
2019-03-29T18:21:58.340Z,24.40
2019-03-29T18:24:26.768Z,24.40
2019-03-29T18:26:55.236Z,24.50
2019-03-29T18:29:23.676Z,24.70
2019-03-29T18:31:52.663Z,24.70
2019-03-29T18:34:21.258Z,24.60
2019-03-29T18:36:51.967Z,24.90
2019-03-29T18:39:21.136Z,24.90
2019-03-29T18:41:49.657Z,24.90
2019-03-29T18:44:18.087Z,25.10
2019-03-29T18:46:46.547Z,25.50
2019-03-29T18:49:15.020Z,25.70
2019-03-29T18:51:43.487Z,25.40
2019-03-29T18:54:11.899Z,25.40
2019-03-29T18:56:40.426Z,26.00
2019-03-29T18:59:08.864Z,26.50
2019-03-29T19:01:37.310Z,26.70
2019-03-29T19:04:05.935Z,26.70
2019-03-29T19:06:34.502Z,27.00
2019-03-29T19:09:04.531Z,27.10
2019-03-29T19:11:32.972Z,27.10
2019-03-29T19:14:01.422Z,26.80
2019-03-29T19:16:29.855Z,26.30
2019-03-29T19:19:09.452Z,26.30
2019-03-29T19:21:28.499Z,26.30
2019-03-29T19:23:57.020Z,26.50
2019-03-29T19:26:25.444Z,26.50
2019-03-29T19:28:53.907Z,61.00
2019-03-29T19:31:22.423Z,61.00
2019-03-29T19:33:50.886Z,61.00
2019-03-29T19:36:19.327Z,61.00
2019-03-29T19:38:47.745Z,60.90
2019-03-29T19:41:16.269Z,61.20
2019-03-29T19:43:44.986Z,61.00
2019-03-29T19:46:13.449Z,60.90
2019-03-29T19:48:41.910Z,61.00
2019-03-29T19:51:10.351Z,61.10
2019-03-29T19:53:38.814Z,61.10
2019-03-29T19:56:08.859Z,61.00
2019-03-29T19:58:37.373Z,61.10
2019-03-29T20:01:05.880Z,61.40
2019-03-29T20:03:34.389Z,61.60
2019-03-29T20:06:02.930Z,61.60
2019-03-29T20:08:31.344Z,61.60
2019-03-29T20:10:59.803Z,61.50
2019-03-29T20:13:28.313Z,61.50
2019-03-29T20:15:56.775Z,61.70
2019-03-29T20:18:25.204Z,61.80
2019-03-29T20:20:53.652Z,61.70
2019-03-29T20:23:22.143Z,62.10
2019-03-29T20:25:50.611Z,62.20
2019-03-29T20:28:19.035Z,62.50
2019-03-29T20:30:47.571Z,62.40
2019-03-29T20:33:15.998Z,62.50
2019-03-29T20:35:44.465Z,62.20
2019-03-29T20:38:12.889Z,62.30
2019-03-29T20:40:41.340Z,62.30
2019-03-29T20:43:09.805Z,62.30
2019-03-29T20:45:38.347Z,62.30
2019-03-29T20:48:06.791Z,62.50
2019-03-29T20:50:35.223Z,62.70
2019-03-29T20:53:03.711Z,62.70
2019-03-29T20:55:32.134Z,62.40
2019-03-29T20:58:00.641Z,62.60
2019-03-29T21:00:29.117Z,62.60
2019-03-29T21:02:57.577Z,62.80
2019-03-29T21:05:26.003Z,62.70
2019-03-29T21:07:55.099Z,63.00
2019-03-29T21:10:23.824Z,63.10
2019-03-29T21:12:52.311Z,63.10
2019-03-29T21:15:20.835Z,63.00
2019-03-29T21:17:56.687Z,63.30
2019-03-29T21:20:19.478Z,63.40
2019-03-29T21:22:47.958Z,63.10
2019-03-29T21:25:16.391Z,63.10
2019-03-29T21:27:44.827Z,63.30
2019-03-29T21:30:15.021Z,63.40
2019-03-29T21:32:43.458Z,63.60
2019-03-29T21:35:14.286Z,63.50
2019-03-29T21:37:42.790Z,63.50
2019-03-29T21:40:11.571Z,63.70
2019-03-29T21:42:40.006Z,64.00
2019-03-29T21:45:08.979Z,63.80
2019-03-29T21:47:37.659Z,63.80
2019-03-29T21:50:09.330Z,63.90
2019-03-29T21:52:38.018Z,64.00
2019-03-29T21:55:08.809Z,64.30
2019-03-29T21:57:37.298Z,64.20
2019-03-29T22:00:11.220Z,64.00
2019-03-29T22:02:39.634Z,64.60
2019-03-29T22:05:10.300Z,64.60
2019-03-29T22:07:38.369Z,65.00
2019-03-29T22:10:08.778Z,64.50
2019-03-29T22:12:37.383Z,64.70
2019-03-29T22:15:08.280Z,64.40
2019-03-29T22:17:36.859Z,64.40
2019-03-29T22:20:07.618Z,64.60
2019-03-29T22:22:36.112Z,64.80
2019-03-29T22:25:07.041Z,64.50
2019-03-29T22:27:35.655Z,64.90
2019-03-29T22:30:08.922Z,65.50
2019-03-29T22:32:37.415Z,65.50
2019-03-29T22:35:07.523Z,65.30
2019-03-29T22:37:36.075Z,65.20
2019-03-29T22:40:07.669Z,64.90
2019-03-29T22:42:36.198Z,65.00
2019-03-29T22:45:07.109Z,64.70
2019-03-29T22:47:35.672Z,65.20
2019-03-29T22:50:06.171Z,65.20
2019-03-29T22:52:34.610Z,65.40
2019-03-29T22:55:03.965Z,65.60
2019-03-29T22:57:32.467Z,66.20
2019-03-29T23:00:00.966Z,66.40
2019-03-29T23:02:29.468Z,66.10
2019-03-29T23:04:57.892Z,66.60
2019-03-29T23:07:26.348Z,66.30
2019-03-29T23:09:54.802Z,66.20
2019-03-29T23:12:23.233Z,66.60
2019-03-29T23:14:51.671Z,66.40
2019-03-29T23:17:20.114Z,65.70
2019-03-29T23:19:48.550Z,66.10
2019-03-29T23:22:17.015Z,66.40
2019-03-29T23:24:45.464Z,66.10
2019-03-29T23:27:13.920Z,66.40
2019-03-29T23:29:42.342Z,66.70
2019-03-29T23:32:10.863Z,67.20
2019-03-29T23:34:39.303Z,67.40
2019-03-29T23:37:07.743Z,67.50
2019-03-29T23:39:36.363Z,67.10
2019-03-29T23:42:04.850Z,67.30
2019-03-29T23:44:33.374Z,67.30
2019-03-29T23:47:01.806Z,66.90
2019-03-29T23:49:30.268Z,67.40
2019-03-29T23:51:58.682Z,68.10
2019-03-29T23:54:27.134Z,68.00
2019-03-29T23:56:55.552Z,68.50
2019-03-29T23:59:24.004Z,68.80
